Time;durP1;ratioP1;P1;durP2;ratioP2;P2;SDS_P1;SDS_P2;PMS_P1;PMS_P2;Temp;Humidity;BMP_temperature;BMP_pressure;BME280_temperature;BME280_humidity;BME280_pressure;Samples;Min_cycle;Max_cycle;Signal;HPM_P1;HPM_P2
2021/10/02 00:31:15;;;;;;;9.50;4.80;;;13.70;99.90;;;;;;5028378;28;20071;-62
2021/10/02 00:35:07;;;;;;;11.15;5.55;;;13.20;99.90;;;;;;4997320;28;20033;-62
2021/10/02 00:37:48;;;;;;;9.05;5.20;;;13.20;99.90;;;;;;5033303;28;20029;-62
2021/10/02 00:45:42;;;;;;;14.95;6.10;;;13.20;99.90;;;;;;5027899;28;20559;-63
2021/10/02 00:48:09;;;;;;;9.45;5.20;;;13.20;99.90;;;;;;5029897;28;20038;-62
2021/10/02 00:50:34;;;;;;;11.45;5.40;;;13.20;99.90;;;;;;5029613;28;20057;-64
2021/10/02 00:53:00;;;;;;;13.30;5.13;;;13.20;99.90;;;;;;5030050;28;20512;-62
2021/10/02 00:55:26;;;;;;;17.27;6.35;;;13.20;99.90;;;;;;5029553;28;20057;-62
2021/10/02 00:57:51;;;;;;;10.27;5.93;;;13.10;99.90;;;;;;5029389;28;20060;-63
2021/10/02 01:00:20;;;;;;;11.15;6.05;;;13.20;99.90;;;;;;5029479;28;20039;-62
2021/10/02 01:03:02;;;;;;;16.48;6.10;;;13.20;99.90;;;;;;5029429;28;20049;-63
2021/10/02 01:05:34;;;;;;;13.40;5.97;;;13.20;99.90;;;;;;5029424;28;20448;-63
2021/10/02 01:08:02;;;;;;;11.45;5.90;;;13.30;99.90;;;;;;5028376;28;20076;-62
2021/10/02 01:10:46;;;;;;;13.15;5.57;;;13.30;99.90;;;;;;5029384;28;20064;-62
2021/10/02 01:13:30;;;;;;;10.77;5.45;;;13.30;99.90;;;;;;5026135;28;20041;-63
2021/10/02 01:16:20;;;;;;;11.88;5.68;;;13.40;99.90;;;;;;5029279;28;20033;-63
2021/10/02 01:18:53;;;;;;;11.77;6.15;;;13.40;99.90;;;;;;5026892;28;20037;-62
2021/10/02 01:21:28;;;;;;;21.13;6.85;;;13.50;99.90;;;;;;5029092;28;20607;-63
2021/10/02 01:24:03;;;;;;;14.98;6.88;;;13.50;99.90;;;;;;5029561;28;20069;-62
2021/10/02 01:26:43;;;;;;;15.20;5.93;;;13.50;99.90;;;;;;5029227;28;20110;-61
2021/10/02 01:29:10;;;;;;;13.30;5.88;;;13.50;99.90;;;;;;5024238;28;20044;-61
2021/10/02 01:31:44;;;;;;;18.08;7.38;;;13.50;99.90;;;;;;5029554;28;20503;-62
2021/10/02 01:34:21;;;;;;;16.75;5.78;;;13.50;99.90;;;;;;5025930;28;20033;-62
2021/10/02 01:48:15;;;;;;;15.70;7.22;;;13.50;99.90;;;;;;5026048;28;20136;-62
2021/10/02 01:50:42;;;;;;;17.08;6.68;;;13.50;99.90;;;;;;5028934;28;20069;-62
2021/10/02 01:53:09;;;;;;;17.20;6.35;;;13.50;99.90;;;;;;5028624;28;20719;-62
2021/10/02 01:55:37;;;;;;;18.65;6.82;;;13.40;99.90;;;;;;5028984;28;20525;-62
2021/10/02 01:58:09;;;;;;;18.23;6.95;;;13.30;99.90;;;;;;5028458;28;20033;-62
2021/10/02 02:00:48;;;;;;;16.65;7.90;;;13.30;99.90;;;;;;5025299;28;20061;-62
2021/10/02 02:03:17;;;;;;;13.13;6.80;;;13.20;99.90;;;;;;5026221;28;20033;-62
2021/10/02 02:05:44;;;;;;;12.05;6.68;;;13.20;99.90;;;;;;5028759;28;20524;-61
2021/10/02 02:08:14;;;;;;;17.80;6.93;;;13.10;99.90;;;;;;5028254;28;20167;-63
2021/10/02 02:10:41;;;;;;;14.30;6.72;;;13.00;99.90;;;;;;5028434;28;20045;-63
2021/10/02 02:13:08;;;;;;;16.85;7.07;;;13.00;99.90;;;;;;5028347;28;20029;-63
2021/10/02 02:15:34;;;;;;;15.60;7.68;;;13.00;99.90;;;;;;5028772;28;20044;-62
2021/10/02 02:18:14;;;;;;;14.23;7.00;;;13.00;99.90;;;;;;5028095;28;20481;-62
2021/10/02 02:20:43;;;;;;;18.20;7.22;;;13.10;99.90;;;;;;5028426;28;20160;-62
2021/10/02 02:23:11;;;;;;;12.32;6.35;;;13.10;99.90;;;;;;5032233;28;20389;-63
2021/10/02 02:25:38;;;;;;;13.30;6.82;;;13.10;99.90;;;;;;5032678;28;20045;-62
2021/10/02 02:28:06;;;;;;;14.07;6.82;;;13.10;99.90;;;;;;5031947;28;20029;-62
2021/10/02 02:30:32;;;;;;;18.83;8.13;;;13.10;99.90;;;;;;5028697;28;20485;-62
2021/10/02 02:32:59;;;;;;;13.98;6.60;;;13.00;99.90;;;;;;5031817;28;20033;-62
2021/10/02 02:35:25;;;;;;;15.00;6.97;;;13.00;99.90;;;;;;5032340;28;20498;-62
2021/10/02 02:37:52;;;;;;;17.63;7.80;;;12.90;99.90;;;;;;5032335;28;20041;-62
2021/10/02 02:40:18;;;;;;;16.25;7.28;;;12.90;99.90;;;;;;5031570;28;20040;-62
2021/10/02 02:42:44;;;;;;;18.27;7.00;;;12.80;99.90;;;;;;5032118;28;20401;-62
2021/10/02 02:45:12;;;;;;;17.98;8.00;;;12.80;99.90;;;;;;5031694;28;20068;-62
2021/10/02 02:47:46;;;;;;;18.50;7.15;;;12.70;99.90;;;;;;5032025;28;20045;-62
2021/10/02 02:50:26;;;;;;;19.55;7.57;;;12.70;99.90;;;;;;5031368;28;20109;-63
2021/10/02 02:52:59;;;;;;;19.80;7.37;;;12.70;99.90;;;;;;5031949;28;20045;-62
2021/10/02 02:55:42;;;;;;;17.98;7.35;;;12.60;99.90;;;;;;5031501;28;20037;-63
2021/10/02 02:58:08;;;;;;;25.15;7.90;;;12.60;99.90;;;;;;5027422;28;20049;-62
2021/10/02 03:00:42;;;;;;;20.95;8.15;;;12.60;99.90;;;;;;5029767;28;20662;-62
2021/10/02 03:03:11;;;;;;;23.58;9.05;;;12.60;99.90;;;;;;5028474;28;20033;-62
2021/10/02 03:05:40;;;;;;;17.40;7.28;;;12.60;99.90;;;;;;5031785;28;20115;-61
2021/10/02 03:08:13;;;;;;;18.65;7.82;;;12.50;99.90;;;;;;5030898;28;20053;-61
2021/10/02 03:10:41;;;;;;;19.33;7.65;;;12.50;99.90;;;;;;5030195;28;20148;-62
2021/10/02 03:13:11;;;;;;;14.63;7.00;;;12.50;99.90;;;;;;5031041;28;20040;-62
2021/10/02 03:15:39;;;;;;;16.70;6.63;;;12.40;99.90;;;;;;5032206;28;20040;-62
2021/10/02 03:18:06;;;;;;;16.10;7.82;;;12.40;99.90;;;;;;5031307;28;20398;-62
2021/10/02 03:20:34;;;;;;;18.73;7.47;;;12.40;99.90;;;;;;5031452;28;20049;-61
2021/10/02 03:23:00;;;;;;;20.67;7.90;;;12.40;99.90;;;;;;5027711;28;20033;-62
2021/10/02 03:25:27;;;;;;;18.45;7.28;;;12.40;99.90;;;;;;5029479;28;20841;-62
2021/10/02 03:27:58;;;;;;;22.60;8.82;;;12.40;99.90;;;;;;5031281;28;20033;-61
2021/10/02 03:30:26;;;;;;;19.48;7.50;;;12.40;99.90;;;;;;5029868;28;20049;-61
2021/10/02 03:32:52;;;;;;;20.42;7.15;;;12.40;99.90;;;;;;5028776;28;20053;-61
2021/10/02 03:35:21;;;;;;;16.33;7.47;;;12.40;99.90;;;;;;5030837;28;20044;-61
2021/10/02 03:37:51;;;;;;;21.27;7.55;;;12.40;99.90;;;;;;5030956;28;20026;-61
2021/10/02 03:40:18;;;;;;;19.33;7.57;;;12.30;99.90;;;;;;5030326;28;20037;-61
2021/10/02 03:42:44;;;;;;;19.65;7.57;;;12.30;99.90;;;;;;5030568;28;20107;-62
2021/10/02 03:45:11;;;;;;;18.92;7.40;;;12.30;99.90;;;;;;5030939;28;20037;-62
2021/10/02 03:47:37;;;;;;;17.20;7.35;;;12.30;99.90;;;;;;5030671;28;20038;-61
2021/10/02 03:50:04;;;;;;;13.70;7.18;;;12.30;99.90;;;;;;5030759;28;20406;-61
2021/10/02 03:52:30;;;;;;;18.38;7.90;;;12.30;99.90;;;;;;5030170;28;20037;-61
2021/10/02 03:54:56;;;;;;;22.55;8.50;;;12.20;99.90;;;;;;5025585;28;20565;-62
2021/10/02 03:57:21;;;;;;;20.33;7.85;;;12.20;99.90;;;;;;5030359;28;20109;-61
2021/10/02 03:59:47;;;;;;;16.67;7.05;;;12.20;99.90;;;;;;5030560;28;20037;-62
2021/10/02 04:02:12;;;;;;;18.23;8.10;;;12.20;99.90;;;;;;5030596;28;20112;-62
2021/10/02 04:04:38;;;;;;;18.10;8.07;;;12.20;99.90;;;;;;5028766;28;20061;-61
2021/10/02 04:07:03;;;;;;;17.98;8.20;;;12.20;99.90;;;;;;5030533;28;20060;-62
2021/10/02 04:09:29;;;;;;;20.67;7.63;;;12.20;99.90;;;;;;5029990;28;20033;-62
2021/10/02 04:11:55;;;;;;;18.83;8.35;;;12.10;99.90;;;;;;5026151;28;20083;-62
2021/10/02 04:14:21;;;;;;;18.25;7.72;;;12.10;99.90;;;;;;5030077;28;20097;-62
2021/10/02 04:16:46;;;;;;;21.65;7.93;;;12.10;99.90;;;;;;5030708;28;20025;-62
2021/10/02 04:19:12;;;;;;;21.60;8.15;;;12.00;99.90;;;;;;5030192;28;20060;-62
2021/10/02 04:21:38;;;;;;;20.33;8.07;;;12.00;99.90;;;;;;5029803;28;20072;-62
2021/10/02 04:24:04;;;;;;;20.25;8.30;;;12.00;99.90;;;;;;5030171;28;20121;-61
2021/10/02 04:26:30;;;;;;;15.88;8.82;;;12.00;99.90;;;;;;5029473;28;20117;-61
2021/10/02 04:28:55;;;;;;;17.05;8.38;;;12.00;99.90;;;;;;5029930;28;20449;-62
2021/10/02 04:31:21;;;;;;;24.33;7.93;;;12.00;99.90;;;;;;5029812;28;20035;-66
2021/10/02 04:33:47;;;;;;;21.02;9.13;;;12.00;99.90;;;;;;5030094;28;20036;-61
2021/10/02 04:36:13;;;;;;;20.98;7.88;;;11.90;99.90;;;;;;5029887;28;20593;-62
2021/10/02 04:38:39;;;;;;;22.40;8.52;;;11.90;99.90;;;;;;5029238;28;20037;-61
2021/10/02 04:41:05;;;;;;;19.42;8.48;;;11.90;99.90;;;;;;5029893;28;20036;-62
2021/10/02 04:43:34;;;;;;;20.80;9.00;;;12.00;99.90;;;;;;5028427;28;20060;-63
2021/10/02 04:46:01;;;;;;;19.33;8.83;;;12.00;99.90;;;;;;5029899;28;20739;-62
2021/10/02 04:48:27;;;;;;;22.80;8.90;;;12.00;99.90;;;;;;5029368;28;20029;-61
2021/10/02 04:50:53;;;;;;;20.40;8.68;;;12.00;99.90;;;;;;5025701;28;20431;-61
2021/10/02 04:53:19;;;;;;;20.52;8.40;;;12.00;99.90;;;;;;5029721;28;20044;-62
2021/10/02 04:55:44;;;;;;;24.55;9.65;;;12.10;99.90;;;;;;5029139;28;20034;-62
2021/10/02 04:58:10;;;;;;;25.52;9.40;;;12.10;99.90;;;;;;5028102;28;20049;-61
2021/10/02 05:00:36;;;;;;;19.40;8.68;;;12.10;99.90;;;;;;5029240;28;20371;-62
2021/10/02 05:03:02;;;;;;;22.33;9.02;;;12.10;99.90;;;;;;5029786;28;20517;-62
2021/10/02 05:05:27;;;;;;;24.23;9.35;;;12.20;99.90;;;;;;5029010;28;20164;-62
2021/10/02 05:07:53;;;;;;;24.35;9.27;;;12.20;99.90;;;;;;5029400;28;20034;-63
2021/10/02 05:10:19;;;;;;;20.02;9.23;;;12.20;99.90;;;;;;5028881;28;20083;-62
2021/10/02 05:12:44;;;;;;;25.33;8.95;;;12.10;99.90;;;;;;5028456;28;20104;-61
2021/10/02 05:15:10;;;;;;;28.15;10.13;;;12.10;99.90;;;;;;5029205;28;20037;-62
2021/10/02 05:17:36;;;;;;;20.70;10.30;;;12.10;99.90;;;;;;5029530;28;20037;-61
2021/10/02 05:20:03;;;;;;;27.67;9.40;;;12.10;99.90;;;;;;5028311;28;20055;-61
2021/10/02 05:22:28;;;;;;;26.30;10.15;;;12.10;99.90;;;;;;5029190;28;20064;-61
2021/10/02 05:24:54;;;;;;;22.13;9.88;;;12.00;99.90;;;;;;5028852;28;20060;-61
2021/10/02 05:27:20;;;;;;;28.75;10.95;;;12.00;99.90;;;;;;5029138;28;20042;-62
2021/10/02 05:29:46;;;;;;;25.45;10.80;;;12.10;99.90;;;;;;5028987;28;20026;-62
2021/10/02 05:32:12;;;;;;;24.50;10.43;;;12.10;99.90;;;;;;5028831;28;20583;-61
2021/10/02 05:34:38;;;;;;;26.13;11.15;;;12.10;99.90;;;;;;5028933;28;20489;-63
2021/10/02 05:37:03;;;;;;;30.27;11.80;;;12.10;99.90;;;;;;5028542;28;20029;-62
2021/10/02 05:39:29;;;;;;;30.52;12.07;;;12.10;99.90;;;;;;5028761;28;20132;-61
2021/10/02 05:41:56;;;;;;;27.95;11.40;;;12.10;99.90;;;;;;5028539;28;20025;-61
2021/10/02 05:44:21;;;;;;;31.58;11.18;;;12.20;99.90;;;;;;5027529;28;20045;-61
2021/10/02 05:46:47;;;;;;;29.88;12.40;;;12.20;99.90;;;;;;5029043;28;20029;-62
2021/10/02 05:49:12;;;;;;;35.90;12.88;;;12.30;99.90;;;;;;5027969;28;20037;-61
2021/10/02 05:51:38;;;;;;;31.27;12.45;;;12.20;99.90;;;;;;5028619;28;20033;-62
2021/10/02 05:54:04;;;;;;;25.90;12.40;;;12.30;99.90;;;;;;5028329;28;20021;-61
2021/10/02 05:56:30;;;;;;;29.42;12.80;;;12.40;99.90;;;;;;5026987;28;20037;-62
2021/10/02 05:58:55;;;;;;;30.95;12.57;;;12.40;99.90;;;;;;5028273;28;20124;-63
2021/10/02 06:01:21;;;;;;;29.02;12.38;;;12.50;99.90;;;;;;5028646;28;20033;-60
2021/10/02 06:03:47;;;;;;;28.40;13.10;;;12.50;99.90;;;;;;5028451;28;20032;-61
2021/10/02 06:06:13;;;;;;;34.08;13.10;;;12.50;99.90;;;;;;5028156;28;20029;-61
2021/10/02 06:08:39;;;;;;;35.30;13.38;;;12.50;99.90;;;;;;5028683;28;20034;-61
2021/10/02 06:11:05;;;;;;;29.25;12.50;;;12.60;99.90;;;;;;5027962;28;20039;-61
2021/10/02 06:13:33;;;;;;;34.72;13.77;;;12.60;99.90;;;;;;5028268;28;20033;-63
2021/10/02 06:15:59;;;;;;;25.55;12.38;;;12.60;99.90;;;;;;5028266;28;20025;-62
2021/10/02 06:18:25;;;;;;;28.40;12.00;;;12.60;99.90;;;;;;5028813;28;20749;-62
2021/10/02 06:20:51;;;;;;;28.48;11.30;;;12.60;99.90;;;;;;5028653;28;20036;-61
2021/10/02 06:23:17;;;;;;;26.23;9.75;;;12.70;99.90;;;;;;5028159;28;20037;-61
2021/10/02 06:25:43;;;;;;;23.23;10.15;;;12.70;99.90;;;;;;5031802;28;20064;-62
2021/10/02 06:28:08;;;;;;;26.27;10.40;;;12.70;99.90;;;;;;5036176;28;20112;-63
2021/10/02 06:30:34;;;;;;;20.98;9.52;;;12.70;99.90;;;;;;5030700;28;20516;-61
2021/10/02 06:33:00;;;;;;;28.40;9.52;;;12.70;99.90;;;;;;5037373;28;20091;-61
2021/10/02 06:35:25;;;;;;;19.98;9.45;;;12.70;99.90;;;;;;5035459;28;20040;-62
2021/10/02 06:37:51;;;;;;;20.92;9.75;;;12.70;99.90;;;;;;5036273;28;20037;-60
2021/10/02 06:40:16;;;;;;;21.83;9.23;;;12.70;99.90;;;;;;5036931;28;20025;-61
2021/10/02 06:42:42;;;;;;;17.83;8.75;;;12.70;99.90;;;;;;5034328;28;20112;-62
2021/10/02 06:45:08;;;;;;;24.27;9.55;;;12.60;99.90;;;;;;5035110;28;20496;-61
2021/10/02 06:47:34;;;;;;;23.25;8.82;;;12.70;99.90;;;;;;5036773;28;20052;-62
2021/10/02 06:50:00;;;;;;;20.42;8.95;;;12.70;99.90;;;;;;5035179;28;20025;-62
2021/10/02 06:52:30;;;;;;;20.40;9.05;;;12.60;99.90;;;;;;5031212;28;20110;-63
2021/10/02 06:54:57;;;;;;;26.02;9.68;;;12.60;99.90;;;;;;5031879;28;20108;-61
2021/10/02 06:57:24;;;;;;;21.10;8.88;;;12.60;99.90;;;;;;5027910;28;20421;-61
2021/10/02 06:59:49;;;;;;;15.82;7.93;;;12.70;99.90;;;;;;5026381;28;20049;-61
2021/10/02 07:02:15;;;;;;;17.73;8.27;;;12.70;99.90;;;;;;5025461;28;20034;-61
2021/10/02 07:04:42;;;;;;;20.40;8.25;;;12.70;99.90;;;;;;5028524;28;20041;-61
2021/10/02 07:07:08;;;;;;;19.20;8.27;;;12.70;99.90;;;;;;5030937;28;20021;-61
2021/10/02 07:09:34;;;;;;;20.65;7.88;;;12.80;99.90;;;;;;5031800;28;20481;-62
2021/10/02 07:11:59;;;;;;;22.38;8.63;;;12.80;99.90;;;;;;5031868;28;20076;-62
2021/10/02 07:14:25;;;;;;;17.40;8.15;;;12.80;99.90;;;;;;5031424;28;20061;-61
2021/10/02 07:16:50;;;;;;;18.48;8.38;;;12.90;99.90;;;;;;5031356;28;20121;-63
2021/10/02 07:19:17;;;;;;;21.15;8.13;;;12.90;99.90;;;;;;5019090;28;20091;-61
2021/10/02 07:21:42;;;;;;;15.82;6.85;;;12.90;99.90;;;;;;5028670;28;20041;-63
2021/10/02 07:24:09;;;;;;;17.50;7.35;;;13.00;99.90;;;;;;5026290;28;20037;-61
2021/10/02 07:26:35;;;;;;;16.50;7.55;;;13.10;99.90;;;;;;5026268;28;20022;-61
2021/10/02 07:29:01;;;;;;;15.38;7.25;;;13.10;99.90;;;;;;5028489;28;20025;-62
2021/10/02 07:31:27;;;;;;;16.73;7.03;;;13.20;99.90;;;;;;5031730;28;20102;-62
2021/10/02 07:33:53;;;;;;;15.82;8.05;;;13.20;99.90;;;;;;5027696;28;20401;-61
2021/10/02 07:36:19;;;;;;;16.60;7.97;;;13.20;99.90;;;;;;5027057;28;20088;-61
2021/10/02 07:38:46;;;;;;;17.20;7.60;;;13.30;99.90;;;;;;5028307;28;20112;-61
2021/10/02 07:41:14;;;;;;;14.85;7.43;;;13.30;99.90;;;;;;5028448;28;20117;-62
2021/10/02 07:43:41;;;;;;;20.52;8.27;;;13.40;99.90;;;;;;5030016;28;20033;-61
2021/10/02 07:46:14;;;;;;;16.08;7.70;;;13.40;99.90;;;;;;5029642;28;20126;-61
2021/10/02 07:48:41;;;;;;;18.25;8.02;;;13.40;99.90;;;;;;5031897;28;20065;-62
2021/10/02 07:51:09;;;;;;;18.25;7.50;;;13.50;99.90;;;;;;5032338;28;20092;-62
2021/10/02 07:53:35;;;;;;;19.92;7.32;;;13.50;99.90;;;;;;5033172;28;20458;-62
2021/10/02 07:56:02;;;;;;;14.07;6.80;;;13.50;99.90;;;;;;5034095;28;20041;-63
2021/10/02 07:58:27;;;;;;;15.75;6.75;;;13.50;99.90;;;;;;5028320;28;20422;-61
2021/10/02 08:00:54;;;;;;;14.80;6.35;;;13.60;99.90;;;;;;5029429;28;20022;-62
2021/10/02 08:03:20;;;;;;;19.08;5.85;;;13.60;99.90;;;;;;5027768;28;20248;-62
2021/10/02 08:05:47;;;;;;;12.20;6.13;;;13.70;99.90;;;;;;5027782;28;20500;-62
2021/10/02 08:08:18;;;;;;;11.95;6.35;;;13.70;99.90;;;;;;5025395;28;20485;-63
2021/10/02 08:10:46;;;;;;;14.40;6.40;;;13.60;99.90;;;;;;5022584;28;20033;-61
2021/10/02 08:13:13;;;;;;;24.27;5.72;;;13.70;99.90;;;;;;5023843;28;20041;-63
2021/10/02 08:15:56;;;;;;;25.92;6.68;;;13.70;99.90;;;;;;5028216;28;20029;-61
2021/10/02 08:18:24;;;;;;;9.90;4.88;;;13.80;99.90;;;;;;5030027;28;20056;-62
2021/10/02 08:20:52;;;;;;;9.65;4.68;;;13.90;99.90;;;;;;5022222;28;20398;-61
2021/10/02 08:23:22;;;;;;;14.63;5.03;;;13.90;99.90;;;;;;5026892;28;20512;-62
2021/10/02 08:25:50;;;;;;;14.73;5.10;;;13.90;99.90;;;;;;5027090;28;20195;-61
2021/10/02 08:28:17;;;;;;;8.55;4.43;;;13.90;99.90;;;;;;5026559;28;20026;-61
2021/10/02 08:30:45;;;;;;;13.05;4.05;;;14.00;99.90;;;;;;5026633;28;20033;-60
2021/10/02 08:33:11;;;;;;;13.23;4.28;;;14.10;99.90;;;;;;5028603;28;20107;-61
2021/10/02 08:35:41;;;;;;;13.30;4.30;;;14.20;99.90;;;;;;5027668;28;20042;-62
2021/10/02 08:38:07;;;;;;;9.90;4.35;;;14.30;99.90;;;;;;5028460;28;20041;-63
2021/10/02 08:40:33;;;;;;;16.77;4.93;;;14.40;99.90;;;;;;5028117;28;20042;-61
2021/10/02 08:43:00;;;;;;;9.63;3.78;;;14.40;99.90;;;;;;5029335;28;20038;-61
2021/10/02 08:45:30;;;;;;;10.43;3.85;;;14.40;99.90;;;;;;5028072;28;20049;-62
2021/10/02 08:47:58;;;;;;;6.97;3.42;;;14.50;99.90;;;;;;5027986;28;20044;-62
2021/10/02 08:50:25;;;;;;;10.82;3.30;;;14.40;99.90;;;;;;5025984;28;20099;-62
2021/10/02 08:52:53;;;;;;;9.55;3.83;;;14.40;99.90;;;;;;5028265;28;20034;-61
2021/10/02 08:55:20;;;;;;;8.07;3.25;;;14.40;99.90;;;;;;5028406;28;20120;-62
2021/10/02 08:57:48;;;;;;;8.23;3.47;;;14.50;99.90;;;;;;5028524;28;20029;-62
2021/10/02 09:00:18;;;;;;;6.22;3.72;;;14.60;99.90;;;;;;5027467;28;20029;-61
2021/10/02 09:02:45;;;;;;;10.65;3.58;;;14.70;99.90;;;;;;5034680;28;20033;-61
2021/10/02 09:05:12;;;;;;;12.25;3.55;;;14.80;99.90;;;;;;5027958;28;20037;-62
2021/10/02 09:07:37;;;;;;;6.10;3.28;;;15.00;99.90;;;;;;5028312;28;20030;-62
2021/10/02 09:10:07;;;;;;;7.22;3.08;;;15.00;99.90;;;;;;5029280;28;20037;-62
2021/10/02 09:12:33;;;;;;;12.32;3.38;;;15.00;99.90;;;;;;5028640;28;20056;-61
2021/10/02 09:15:03;;;;;;;8.73;3.28;;;15.10;99.90;;;;;;5029795;28;20084;-62
2021/10/02 09:17:30;;;;;;;8.98;3.65;;;15.10;99.90;;;;;;5029107;28;20037;-64
2021/10/02 09:19:56;;;;;;;9.77;3.90;;;15.10;99.90;;;;;;5025120;28;20040;-62
2021/10/02 09:22:22;;;;;;;7.93;4.15;;;15.10;99.90;;;;;;5029724;28;20026;-62
2021/10/02 09:24:50;;;;;;;8.15;4.32;;;15.10;99.90;;;;;;5030521;28;20045;-62
2021/10/02 09:27:23;;;;;;;13.88;5.43;;;15.20;99.90;;;;;;5030337;28;20106;-64
2021/10/02 09:30:10;;;;;;;10.30;5.15;;;15.30;99.90;;;;;;5032236;28;20037;-62
2021/10/02 09:32:41;;;;;;;10.05;5.57;;;15.40;99.90;;;;;;5026876;28;20030;-62
2021/10/02 09:35:16;;;;;;;10.77;4.93;;;15.50;99.90;;;;;;5032438;28;20167;-63
2021/10/02 09:37:44;;;;;;;8.10;4.32;;;15.60;99.90;;;;;;5038875;28;20076;-63
2021/10/02 09:40:19;;;;;;;7.07;4.07;;;15.70;99.90;;;;;;5038921;28;20030;-59
2021/10/02 09:42:53;;;;;;;9.23;4.32;;;15.80;99.90;;;;;;5038533;28;20026;-62
2021/10/02 09:45:26;;;;;;;8.18;4.60;;;15.90;99.90;;;;;;5039759;28;20467;-62
2021/10/02 09:47:56;;;;;;;11.90;4.38;;;15.80;99.90;;;;;;5040786;28;20041;-60
2021/10/02 09:50:25;;;;;;;10.85;3.92;;;15.80;99.90;;;;;;5035145;28;20026;-62
2021/10/02 09:52:54;;;;;;;9.15;3.95;;;15.90;99.90;;;;;;5031077;28;20053;-64
2021/10/02 09:55:28;;;;;;;10.15;3.88;;;15.90;99.90;;;;;;5027091;28;20110;-64
2021/10/02 09:57:59;;;;;;;9.93;3.67;;;16.10;99.90;;;;;;5028255;28;20052;-62
2021/10/02 10:00:30;;;;;;;8.38;3.75;;;16.10;99.90;;;;;;5028925;28;20127;-63
2021/10/02 10:02:58;;;;;;;9.55;3.63;;;16.20;99.90;;;;;;5027784;28;20037;-63
2021/10/02 10:05:45;;;;;;;8.48;3.85;;;16.20;99.90;;;;;;5024446;28;20102;-62
2021/10/02 10:08:13;;;;;;;10.07;4.32;;;16.20;99.90;;;;;;5023955;28;20038;-62
2021/10/02 10:10:42;;;;;;;7.95;3.40;;;16.20;99.90;;;;;;5027319;28;20120;-63
2021/10/02 10:13:19;;;;;;;8.43;2.95;;;16.20;99.90;;;;;;5025927;28;20033;-62
2021/10/02 10:15:46;;;;;;;10.48;3.85;;;16.10;99.90;;;;;;5024564;28;20061;-62
2021/10/02 10:18:15;;;;;;;11.48;4.32;;;16.10;99.90;;;;;;5025293;28;20025;-62
2021/10/02 10:20:51;;;;;;;10.68;4.03;;;16.10;99.90;;;;;;5023845;28;20049;-61
2021/10/02 10:23:42;;;;;;;8.57;3.67;;;16.10;99.90;;;;;;5024150;28;20389;-64
2021/10/02 10:26:14;;;;;;;11.07;4.28;;;16.10;99.90;;;;;;5022655;28;20065;-64
2021/10/02 10:28:42;;;;;;;22.73;4.47;;;16.10;99.90;;;;;;5023384;28;20037;-63
2021/10/02 10:31:14;;;;;;;12.73;4.15;;;16.10;99.90;;;;;;5025626;28;20036;-59
2021/10/02 10:33:41;;;;;;;8.93;3.85;;;16.00;99.90;;;;;;5026540;28;20040;-61
2021/10/02 10:36:08;;;;;;;8.25;4.18;;;16.00;99.90;;;;;;5026170;28;20061;-62
2021/10/02 10:38:35;;;;;;;10.18;3.72;;;16.00;99.90;;;;;;5021871;28;20037;-60
2021/10/02 10:41:03;;;;;;;8.45;3.92;;;16.00;99.90;;;;;;5028260;28;20169;-62
2021/10/02 10:43:30;;;;;;;12.80;3.70;;;16.00;99.90;;;;;;5028959;28;20026;-62
2021/10/02 10:46:04;;;;;;;10.88;3.75;;;16.00;99.90;;;;;;5030282;28;20030;-61
2021/10/02 10:48:30;;;;;;;9.05;3.47;;;16.00;99.90;;;;;;5029310;28;20034;-62
2021/10/02 10:51:03;;;;;;;11.20;3.97;;;15.90;99.90;;;;;;5029958;28;20052;-63
2021/10/02 10:53:40;;;;;;;9.20;3.40;;;15.90;99.90;;;;;;5027262;28;20033;-64
2021/10/02 10:56:07;;;;;;;9.60;3.85;;;15.90;99.90;;;;;;5026999;28;20037;-64
2021/10/02 10:58:33;;;;;;;10.18;3.15;;;16.00;99.90;;;;;;5023572;28;20033;-62
2021/10/02 11:01:02;;;;;;;18.85;4.05;;;16.00;99.90;;;;;;5029772;28;20037;-62
2021/10/02 11:03:39;;;;;;;7.95;3.17;;;16.00;99.90;;;;;;5027574;28;20046;-62
2021/10/02 11:06:07;;;;;;;6.18;3.53;;;16.00;99.90;;;;;;5026036;28;20099;-62
2021/10/02 11:08:59;;;;;;;9.00;3.20;;;16.00;99.90;;;;;;5026854;28;20061;-62
2021/10/02 11:11:44;;;;;;;7.18;3.08;;;15.90;99.90;;;;;;5027340;28;20041;-62
2021/10/02 11:14:10;;;;;;;8.80;2.78;;;15.90;99.90;;;;;;5024700;28;20468;-62
2021/10/02 11:16:38;;;;;;;6.72;2.40;;;16.00;99.90;;;;;;5028864;28;20049;-62
2021/10/02 11:19:36;;;;;;;7.53;2.53;;;16.00;99.90;;;;;;5029481;28;20704;-62
2021/10/02 11:22:04;;;;;;;10.57;2.35;;;16.10;99.90;;;;;;5024666;28;20087;-63
2021/10/02 11:24:41;;;;;;;7.70;2.25;;;16.10;99.90;;;;;;5025124;28;20038;-63
2021/10/02 11:27:08;;;;;;;8.63;3.13;;;16.10;99.90;;;;;;5025958;28;20116;-60
2021/10/02 11:29:38;;;;;;;6.57;2.08;;;16.20;99.90;;;;;;5028958;28;20083;-62
2021/10/02 11:32:30;;;;;;;5.45;2.42;;;16.30;99.90;;;;;;5023593;28;20029;-63
2021/10/02 11:35:24;;;;;;;10.35;2.17;;;16.30;99.90;;;;;;5028151;28;20124;-60
2021/10/02 11:37:56;;;;;;;8.30;1.77;;;16.40;99.90;;;;;;5026133;28;20110;-62
2021/10/02 11:40:40;;;;;;;7.63;1.85;;;16.30;99.90;;;;;;5028309;28;20033;-62
2021/10/02 11:43:15;;;;;;;9.50;2.00;;;16.20;99.90;;;;;;5025343;28;20042;-62
2021/10/02 11:45:45;;;;;;;8.25;1.88;;;15.80;99.90;;;;;;5029096;28;20493;-61
2021/10/02 11:48:30;;;;;;;7.55;1.70;;;15.60;99.90;;;;;;5027577;28;20029;-63
2021/10/02 11:51:14;;;;;;;10.23;1.77;;;15.60;99.90;;;;;;5030341;28;20512;-62
2021/10/02 11:53:45;;;;;;;6.00;1.50;;;15.70;99.90;;;;;;5025664;28;20045;-63
2021/10/02 11:56:19;;;;;;;9.05;1.42;;;15.80;99.90;;;;;;5028119;28;20037;-63
2021/10/02 11:58:46;;;;;;;4.63;1.13;;;15.80;99.90;;;;;;5030201;28;20621;-62
2021/10/02 12:01:20;;;;;;;2.53;1.20;;;16.00;99.90;;;;;;5029307;28;20040;-61
2021/10/02 12:03:46;;;;;;;3.15;1.60;;;16.10;99.90;;;;;;5030580;28;20120;-62
2021/10/02 12:06:11;;;;;;;6.78;1.15;;;16.30;99.90;;;;;;5029928;28;20120;-62
2021/10/02 12:08:38;;;;;;;6.68;1.60;;;16.30;99.90;;;;;;5027804;28;20034;-62
2021/10/02 12:11:11;;;;;;;4.20;1.42;;;16.50;99.90;;;;;;5029898;28;20087;-61
2021/10/02 12:14:00;;;;;;;4.95;1.40;;;16.70;99.90;;;;;;5031027;28;20564;-61
2021/10/02 12:16:29;;;;;;;4.90;1.05;;;16.70;99.90;;;;;;5030634;28;20481;-61
2021/10/02 12:19:11;;;;;;;2.05;0.80;;;16.90;99.90;;;;;;5029052;28;20025;-63
2021/10/02 12:21:42;;;;;;;4.05;0.90;;;16.90;99.90;;;;;;5027747;28;20037;-63
2021/10/02 12:24:21;;;;;;;3.25;0.70;;;16.90;99.90;;;;;;5030631;28;20045;-62
2021/10/02 12:27:03;;;;;;;2.17;0.63;;;16.90;99.90;;;;;;5030469;28;20037;-62
2021/10/02 12:29:30;;;;;;;3.60;1.10;;;16.80;99.90;;;;;;5024927;28;20037;-62
2021/10/02 12:31:58;;;;;;;4.68;0.82;;;16.70;99.90;;;;;;5049647;28;20397;-63
2021/10/02 12:34:26;;;;;;;4.35;0.75;;;16.60;99.90;;;;;;5030327;28;20029;-62
2021/10/02 12:36:56;;;;;;;3.22;0.90;;;16.50;99.90;;;;;;5030445;28;20084;-61
2021/10/02 12:39:29;;;;;;;3.17;0.47;;;16.50;99.90;;;;;;5030085;28;20098;-62
2021/10/02 12:41:55;;;;;;;3.17;0.70;;;16.50;99.90;;;;;;5029888;28;20080;-62
2021/10/02 12:44:28;;;;;;;3.10;0.50;;;16.50;99.90;;;;;;5030344;28;20064;-61
2021/10/02 12:46:55;;;;;;;3.90;0.93;;;16.40;99.90;;;;;;5029964;28;20680;-62
2021/10/02 12:49:22;;;;;;;7.65;1.45;;;16.40;99.90;;;;;;5030035;28;20039;-61
2021/10/02 12:51:48;;;;;;;4.43;0.95;;;16.40;99.90;;;;;;5029852;28;20371;-62
2021/10/02 12:54:16;;;;;;;6.35;0.60;;;16.40;99.90;;;;;;5029899;28;20061;-61
2021/10/02 12:57:24;;;;;;;7.53;1.00;;;16.30;99.90;;;;;;5029936;28;20810;-62
2021/10/02 12:59:58;;;;;;;6.25;0.60;;;16.30;99.90;;;;;;5016950;28;20045;-63
2021/10/02 13:02:24;;;;;;;3.08;0.80;;;16.20;99.90;;;;;;5029437;28;20095;-62
2021/10/02 13:04:50;;;;;;;10.45;1.02;;;16.20;99.90;;;;;;5028596;28;20043;-62
2021/10/02 13:07:28;;;;;;;4.03;0.70;;;16.10;99.90;;;;;;5029817;28;20103;-62
2021/10/02 13:10:01;;;;;;;2.50;0.60;;;16.00;99.90;;;;;;5025267;28;20060;-62
2021/10/02 13:12:29;;;;;;;1.42;0.52;;;15.90;99.90;;;;;;5025704;28;20029;-64
2021/10/02 13:14:55;;;;;;;4.07;0.73;;;15.80;99.90;;;;;;5025494;28;20095;-62
2021/10/02 13:17:22;;;;;;;2.88;0.60;;;15.60;99.90;;;;;;5029944;28;20060;-63
2021/10/02 13:19:48;;;;;;;4.63;0.73;;;15.60;99.90;;;;;;5029530;28;20033;-63
2021/10/02 13:22:19;;;;;;;3.70;1.10;;;15.50;99.90;;;;;;5029633;28;20068;-62
2021/10/02 13:25:05;;;;;;;5.18;0.85;;;15.50;99.90;;;;;;5029286;28;20038;-62
2021/10/02 13:27:35;;;;;;;4.07;0.90;;;15.50;99.90;;;;;;5025126;28;20433;-62
2021/10/02 13:30:03;;;;;;;2.53;0.73;;;15.40;99.90;;;;;;5028899;28;20087;-64
2021/10/02 13:32:29;;;;;;;2.20;0.70;;;15.40;99.90;;;;;;5053071;28;20026;-62
2021/10/02 13:34:55;;;;;;;3.25;0.82;;;15.40;99.90;;;;;;5029358;28;20029;-64
2021/10/02 13:37:25;;;;;;;2.25;0.55;;;15.40;99.90;;;;;;5029513;28;20112;-62